< < Back
Terminal Aerodrome Forecast


Current Version              Previous Versions:   1  2  3  4  5  6  7  8  9  

Terminal Aerodrome Forecast

094
FTUS42 KCAE 192000 AAA
TAFCAE
TAF AMD
KCAE 192039Z 1921/2018 04005KT P6SM SCT250
     FM200000 VRB03KT P6SM OVC200
     FM200900 VRB03KT P6SM -RA OVC060
     FM201200 05003KT 6SM -RA BR BKN025=

Latest METAR

910
SAUS80 KWBC 200200 RRA
MTRCAE
METAR KCAE 200156Z 00000KT 10SM BKN150 11/04 A3015 RMK AO2 SLP208
T01110039


USA.gov is the U.S. government's official web portal to all federal, state and local government web resources and services.